createdAt,value
2018-08-09T00:01:12.128Z,86.40
2018-08-09T00:04:15.217Z,87.30
2018-08-09T00:07:18.293Z,86.50
2018-08-09T00:10:21.410Z,86.60
2018-08-09T00:13:24.523Z,86.70
2018-08-09T00:16:27.592Z,87.00
2018-08-09T00:19:30.688Z,87.20
2018-08-09T00:22:33.780Z,87.40
2018-08-09T00:25:36.902Z,87.40
2018-08-09T00:28:40.022Z,87.00
2018-08-09T00:31:43.085Z,87.40
2018-08-09T00:34:46.728Z,87.90
2018-08-09T00:37:49.785Z,87.80
2018-08-09T00:40:52.877Z,87.80
2018-08-09T00:43:55.982Z,87.70
2018-08-09T00:46:59.126Z,87.90
2018-08-09T00:50:02.223Z,88.50
2018-08-09T00:53:05.278Z,88.50
2018-08-09T00:56:08.376Z,89.40
2018-08-09T00:59:11.448Z,88.60
2018-08-09T01:02:14.569Z,88.70
2018-08-09T01:05:17.657Z,89.10
2018-08-09T01:08:20.713Z,89.40
2018-08-09T01:11:23.814Z,89.50
2018-08-09T01:14:26.894Z,89.70
2018-08-09T01:17:29.979Z,89.90
2018-08-09T01:20:33.032Z,90.10
2018-08-09T01:23:36.119Z,90.10
2018-08-09T01:26:39.182Z,90.20
2018-08-09T01:29:42.248Z,90.30
2018-08-09T01:32:45.356Z,90.30
2018-08-09T01:35:48.393Z,90.40
2018-08-09T01:38:51.468Z,90.40
2018-08-09T01:42:06.105Z,90.40
2018-08-09T01:45:09.204Z,90.40
2018-08-09T01:48:12.281Z,90.40
2018-08-09T01:51:15.373Z,90.50
2018-08-09T01:54:19.529Z,90.50
2018-08-09T01:57:22.604Z,90.50
2018-08-09T02:00:25.699Z,90.90
2018-08-09T02:03:28.785Z,90.80
2018-08-09T02:06:31.865Z,90.80
2018-08-09T02:09:35.777Z,90.80
2018-08-09T02:12:38.832Z,90.90
2018-08-09T02:15:41.917Z,90.80
2018-08-09T02:18:44.992Z,90.80
2018-08-09T02:21:48.087Z,90.90
2018-08-09T02:24:51.157Z,90.90
2018-08-09T02:27:54.237Z,91.00
2018-08-09T02:30:57.335Z,90.90
2018-08-09T02:34:00.421Z,91.00
2018-08-09T02:37:03.482Z,91.00
2018-08-09T02:40:06.685Z,91.20
2018-08-09T02:43:09.822Z,91.30
2018-08-09T02:46:12.905Z,91.30
2018-08-09T02:49:15.990Z,91.30
2018-08-09T02:52:19.064Z,91.40
2018-08-09T02:55:22.137Z,91.40
2018-08-09T02:58:25.193Z,91.50
2018-08-09T03:01:28.316Z,91.40
2018-08-09T03:04:31.365Z,91.50
2018-08-09T03:07:34.457Z,91.30
2018-08-09T03:10:37.550Z,91.30
2018-08-09T03:13:40.681Z,91.30
2018-08-09T03:16:43.762Z,91.30
2018-08-09T03:19:46.833Z,91.40
2018-08-09T03:22:49.949Z,91.50
2018-08-09T03:25:53.041Z,91.60
2018-08-09T03:28:56.137Z,91.70
2018-08-09T03:31:59.236Z,91.70
2018-08-09T03:35:02.301Z,91.90
2018-08-09T03:38:05.417Z,91.70
2018-08-09T03:41:08.646Z,91.70
2018-08-09T03:44:11.705Z,91.70
2018-08-09T03:47:14.797Z,91.70
2018-08-09T03:50:17.875Z,91.70
2018-08-09T03:53:20.961Z,91.70
2018-08-09T03:56:24.065Z,91.70
2018-08-09T03:59:27.149Z,91.70
2018-08-09T04:02:30.263Z,91.60
2018-08-09T04:05:33.349Z,91.60
2018-08-09T04:08:36.660Z,91.60
2018-08-09T04:11:40.086Z,91.40
2018-08-09T04:14:43.137Z,91.70
2018-08-09T04:17:46.225Z,91.40
2018-08-09T04:20:49.320Z,91.30
2018-08-09T04:23:52.426Z,91.30
2018-08-09T04:26:55.516Z,91.40
2018-08-09T04:29:58.598Z,91.30
2018-08-09T04:33:01.717Z,91.30
2018-08-09T04:36:04.816Z,91.00
2018-08-09T04:39:08.505Z,90.70
2018-08-09T04:42:11.597Z,90.50
2018-08-09T04:45:14.697Z,90.40
2018-08-09T04:48:17.786Z,90.50
2018-08-09T04:51:20.861Z,90.30
2018-08-09T04:54:23.917Z,90.30
2018-08-09T04:57:27.014Z,90.20
2018-08-09T05:00:30.093Z,90.00
2018-08-09T05:03:33.177Z,89.40
2018-08-09T05:06:36.270Z,89.40
2018-08-09T05:09:39.350Z,88.40
2018-08-09T05:12:42.797Z,87.60
2018-08-09T05:15:45.870Z,86.70
2018-08-09T05:18:48.961Z,86.60
2018-08-09T05:21:52.041Z,86.00
2018-08-09T05:24:55.305Z,86.30
2018-08-09T05:27:58.399Z,86.50
2018-08-09T05:31:01.477Z,87.00
2018-08-09T05:34:04.645Z,88.20
2018-08-09T05:37:07.850Z,88.60
2018-08-09T05:40:11.082Z,88.70
2018-08-09T05:43:14.313Z,86.90
2018-08-09T05:46:17.730Z,85.80
2018-08-09T05:49:20.950Z,85.70
2018-08-09T05:52:24.237Z,86.60
2018-08-09T05:55:27.530Z,86.00
2018-08-09T05:58:30.828Z,83.70
2018-08-09T06:01:33.919Z,81.60
2018-08-09T06:04:37.157Z,78.60
2018-08-09T06:07:40.490Z,74.10
2018-08-09T06:10:43.816Z,73.40
2018-08-09T06:13:47.105Z,74.90
2018-08-09T06:16:51.458Z,77.60
2018-08-09T06:19:54.806Z,79.70
2018-08-09T06:22:59.054Z,81.00
2018-08-09T06:26:02.314Z,81.70
2018-08-09T06:29:05.596Z,81.80
2018-08-09T06:32:08.898Z,81.10
2018-08-09T06:35:12.141Z,80.50
2018-08-09T06:38:15.402Z,80.20
2018-08-09T06:41:25.191Z,79.70
2018-08-09T06:44:28.487Z,79.70
2018-08-09T06:47:31.803Z,79.10
2018-08-09T06:50:34.986Z,75.90
2018-08-09T06:53:38.194Z,70.50
2018-08-09T06:56:41.481Z,62.20
2018-08-09T06:59:45.086Z,58.20
2018-08-09T07:02:48.402Z,57.80
2018-08-09T07:05:51.609Z,56.50
2018-08-09T07:08:54.797Z,55.20
2018-08-09T07:11:58.046Z,54.50
2018-08-09T07:15:01.279Z,54.60
2018-08-09T07:18:04.615Z,57.00
2018-08-09T07:21:07.869Z,57.90
2018-08-09T07:24:11.066Z,58.30
2018-08-09T07:27:15.282Z,58.00
2018-08-09T07:30:18.510Z,56.40
2018-08-09T07:33:21.725Z,54.40
2018-08-09T07:36:24.898Z,51.70
2018-08-09T07:39:28.109Z,50.70
2018-08-09T07:42:31.258Z,48.50
2018-08-09T07:45:34.514Z,47.60
2018-08-09T07:48:37.805Z,49.50
2018-08-09T07:51:40.966Z,51.00
2018-08-09T07:54:44.195Z,49.40
2018-08-09T07:57:47.353Z,48.40
2018-08-09T08:00:50.631Z,46.70
2018-08-09T08:03:53.759Z,46.40
2018-08-09T08:06:56.883Z,46.00
2018-08-09T08:09:59.992Z,44.80
2018-08-09T08:13:03.065Z,45.60
2018-08-09T08:16:06.238Z,44.10
2018-08-09T08:19:09.309Z,42.70
2018-08-09T08:22:12.370Z,43.00
2018-08-09T08:25:15.465Z,43.10
2018-08-09T08:28:18.537Z,42.60
2018-08-09T08:31:21.649Z,42.90
2018-08-09T08:34:24.745Z,42.60
2018-08-09T08:37:28.449Z,41.50
2018-08-09T08:40:31.524Z,40.60
2018-08-09T08:43:34.617Z,41.10
2018-08-09T08:46:37.709Z,41.00
2018-08-09T08:49:40.769Z,41.10
2018-08-09T08:52:43.832Z,41.70
2018-08-09T08:55:46.913Z,40.50
2018-08-09T08:58:49.995Z,40.30
2018-08-09T09:01:53.074Z,41.70
2018-08-09T09:04:56.207Z,41.10
2018-08-09T09:07:59.262Z,41.30
2018-08-09T09:11:02.325Z,42.40
2018-08-09T09:14:05.395Z,44.60
2018-08-09T09:17:08.465Z,46.60
2018-08-09T09:20:13.597Z,47.20
2018-08-09T09:23:16.674Z,46.50
2018-08-09T09:26:19.769Z,46.60
2018-08-09T09:29:41.261Z,45.60
2018-08-09T09:32:44.700Z,47.00
2018-08-09T09:35:47.790Z,47.20
2018-08-09T09:38:50.883Z,46.90
2018-08-09T09:41:53.976Z,46.80
2018-08-09T09:44:57.105Z,46.80
2018-08-09T09:48:00.179Z,46.50
2018-08-09T09:51:03.240Z,47.00
2018-08-09T09:54:06.298Z,48.00
2018-08-09T09:57:09.397Z,48.00
2018-08-09T10:00:17.985Z,47.40
2018-08-09T10:03:21.100Z,46.50
2018-08-09T10:06:24.204Z,47.10
2018-08-09T10:09:27.304Z,47.70
2018-08-09T10:12:30.370Z,47.70
2018-08-09T10:15:33.462Z,47.50
2018-08-09T10:18:36.527Z,47.40
2018-08-09T10:21:39.641Z,47.90
2018-08-09T10:24:42.741Z,48.40
2018-08-09T10:27:45.826Z,48.60
2018-08-09T10:30:48.906Z,48.60
2018-08-09T10:33:51.997Z,48.80
2018-08-09T10:36:55.094Z,49.10
2018-08-09T10:39:58.192Z,48.20
2018-08-09T10:43:01.278Z,48.20
2018-08-09T10:46:04.354Z,47.70
2018-08-09T10:49:07.809Z,48.20
2018-08-09T10:52:10.901Z,47.90
2018-08-09T10:55:13.993Z,48.50
2018-08-09T10:58:17.083Z,47.80
2018-08-09T11:01:20.302Z,46.90
2018-08-09T11:04:23.425Z,46.90
2018-08-09T11:07:26.501Z,46.70
2018-08-09T11:10:29.783Z,46.80
2018-08-09T11:13:32.836Z,47.10
2018-08-09T11:16:35.902Z,46.70
2018-08-09T11:19:38.962Z,47.10
2018-08-09T11:22:42.221Z,46.70
2018-08-09T11:25:45.300Z,46.80
2018-08-09T11:28:48.393Z,46.30
2018-08-09T11:31:51.464Z,46.60
2018-08-09T11:34:54.512Z,46.20
2018-08-09T11:37:57.600Z,46.20
2018-08-09T11:41:00.681Z,45.60
2018-08-09T11:44:04.861Z,45.00
2018-08-09T11:47:07.925Z,44.70
2018-08-09T11:50:10.991Z,45.20
2018-08-09T11:53:14.171Z,45.10
2018-08-09T11:56:17.341Z,44.60
2018-08-09T11:59:20.336Z,45.30
2018-08-09T12:02:23.400Z,45.20
2018-08-09T12:05:26.477Z,44.70
2018-08-09T12:08:29.557Z,44.60
2018-08-09T12:11:32.649Z,44.90
2018-08-09T12:14:35.719Z,45.30
2018-08-09T12:17:38.812Z,45.30
2018-08-09T12:20:42.105Z,44.70
2018-08-09T12:23:45.188Z,44.40
2018-08-09T12:26:48.330Z,44.60
2018-08-09T12:29:51.649Z,44.60
2018-08-09T12:32:54.712Z,45.20
2018-08-09T12:35:57.788Z,45.00
2018-08-09T12:39:00.913Z,44.70
2018-08-09T12:42:03.997Z,44.80
2018-08-09T12:45:08.602Z,44.20
2018-08-09T12:48:11.649Z,44.70
2018-08-09T12:51:14.720Z,44.60
2018-08-09T12:54:17.802Z,44.10
2018-08-09T12:57:20.872Z,44.10
2018-08-09T13:00:23.948Z,44.00
2018-08-09T13:03:27.060Z,43.70
2018-08-09T13:06:30.170Z,43.50
2018-08-09T13:09:33.407Z,43.70
2018-08-09T13:12:37.006Z,44.30
2018-08-09T13:15:40.316Z,44.20
2018-08-09T13:18:43.690Z,43.80
2018-08-09T13:21:47.119Z,43.60
2018-08-09T13:24:50.303Z,43.70
2018-08-09T13:27:54.584Z,43.10
2018-08-09T13:30:57.928Z,43.20
2018-08-09T13:34:01.274Z,43.30
2018-08-09T13:37:04.535Z,43.50
2018-08-09T13:40:09.057Z,44.00
2018-08-09T13:43:12.356Z,44.20
2018-08-09T13:46:15.698Z,43.60
2018-08-09T13:49:18.966Z,43.20
2018-08-09T13:52:22.665Z,42.30
2018-08-09T13:55:25.924Z,42.50
2018-08-09T13:58:29.264Z,43.50
2018-08-09T14:01:32.500Z,44.10
2018-08-09T14:04:35.797Z,44.50
2018-08-09T14:07:40.226Z,44.60
2018-08-09T14:10:43.491Z,44.70
2018-08-09T14:13:46.820Z,44.60
2018-08-09T14:17:04.298Z,45.20
2018-08-09T14:20:09.742Z,46.00
2018-08-09T14:23:12.938Z,45.20
2018-08-09T14:26:16.309Z,44.60
2018-08-09T14:29:19.559Z,44.30
2018-08-09T14:32:22.839Z,44.30
2018-08-09T14:35:26.200Z,44.40
2018-08-09T14:38:29.430Z,43.60
2018-08-09T14:41:32.601Z,43.60
2018-08-09T14:44:35.850Z,43.00
2018-08-09T14:47:39.046Z,43.00
2018-08-09T14:50:42.322Z,42.90
2018-08-09T14:53:45.684Z,43.00
2018-08-09T14:56:49.008Z,43.20
2018-08-09T14:59:54.302Z,43.40
2018-08-09T15:02:57.465Z,43.60
2018-08-09T15:06:00.681Z,43.80
2018-08-09T15:09:06.002Z,43.10
2018-08-09T15:12:09.475Z,43.30
2018-08-09T15:15:12.837Z,47.80
2018-08-09T15:18:16.007Z,50.80
2018-08-09T15:21:19.218Z,53.40
2018-08-09T15:24:22.392Z,55.90
2018-08-09T15:27:25.806Z,58.30
2018-08-09T15:30:29.139Z,59.00
2018-08-09T15:33:32.498Z,62.40
2018-08-09T15:36:39.498Z,66.80
2018-08-09T15:39:42.779Z,74.80
2018-08-09T15:42:46.101Z,79.50
2018-08-09T15:45:49.390Z,80.70
2018-08-09T15:48:52.670Z,84.60
2018-08-09T15:51:55.870Z,86.30
2018-08-09T15:54:59.220Z,90.10
2018-08-09T15:58:02.465Z,91.40
2018-08-09T16:01:05.777Z,92.20
2018-08-09T16:04:09.162Z,92.20
2018-08-09T16:07:12.445Z,93.50
2018-08-09T16:10:16.744Z,94.10
2018-08-09T16:13:20.258Z,94.40
2018-08-09T16:16:23.642Z,94.80
2018-08-09T16:19:26.856Z,94.80
2018-08-09T16:22:30.182Z,94.90
2018-08-09T16:25:33.475Z,94.20
2018-08-09T16:28:36.678Z,94.30
2018-08-09T16:31:40.552Z,91.00
2018-08-09T16:34:43.810Z,90.10
2018-08-09T16:37:47.437Z,90.40
2018-08-09T16:40:50.787Z,90.70
2018-08-09T16:43:54.138Z,91.00
2018-08-09T16:46:57.596Z,90.90
2018-08-09T16:50:00.963Z,91.50
2018-08-09T16:53:04.286Z,90.20
2018-08-09T16:56:07.554Z,90.70
2018-08-09T16:59:10.781Z,90.00
2018-08-09T17:02:14.078Z,90.10
2018-08-09T17:05:19.685Z,89.30
2018-08-09T17:08:22.881Z,89.60
2018-08-09T17:11:26.180Z,90.50
2018-08-09T17:14:29.398Z,90.20
2018-08-09T17:17:32.676Z,89.30
2018-08-09T17:20:35.966Z,89.30
2018-08-09T17:23:39.274Z,90.50
2018-08-09T17:26:42.520Z,90.60
2018-08-09T17:29:45.766Z,90.00
2018-08-09T17:32:49.021Z,90.40
2018-08-09T17:35:52.326Z,90.20
2018-08-09T17:38:55.654Z,90.30
2018-08-09T17:41:58.813Z,90.30
2018-08-09T17:45:02.117Z,90.00
2018-08-09T17:48:05.967Z,89.30
2018-08-09T17:51:09.211Z,89.80
2018-08-09T17:54:18.558Z,89.30
2018-08-09T17:57:21.860Z,88.20
2018-08-09T18:00:32.641Z,86.70
2018-08-09T18:03:35.842Z,87.20
2018-08-09T18:06:39.060Z,87.00
2018-08-09T18:09:42.342Z,87.90
2018-08-09T18:12:46.183Z,89.20
2018-08-09T18:15:49.410Z,88.80
2018-08-09T18:18:52.826Z,88.90
2018-08-09T18:21:56.086Z,89.00
2018-08-09T18:24:59.350Z,89.80
2018-08-09T18:28:02.738Z,89.90
2018-08-09T18:31:09.122Z,90.10
2018-08-09T18:34:12.358Z,90.10
2018-08-09T18:37:15.634Z,90.00
2018-08-09T18:40:20.769Z,89.10
2018-08-09T18:43:23.931Z,88.90
2018-08-09T18:46:27.201Z,89.20
2018-08-09T18:49:30.501Z,89.60
2018-08-09T18:52:33.714Z,90.10
2018-08-09T18:55:36.905Z,90.40
2018-08-09T18:58:40.127Z,90.60
2018-08-09T19:01:43.402Z,90.80
2018-08-09T19:04:46.594Z,91.00
2018-08-09T19:07:49.782Z,91.20
2018-08-09T19:10:52.970Z,91.10
2018-08-09T19:13:56.197Z,91.30
2018-08-09T19:16:59.406Z,91.60
2018-08-09T19:20:02.614Z,91.40
2018-08-09T19:23:06.213Z,91.60
2018-08-09T19:26:09.494Z,91.60
2018-08-09T19:29:12.714Z,91.70
2018-08-09T19:32:15.902Z,91.70
2018-08-09T19:35:19.809Z,91.80
2018-08-09T19:38:23.010Z,91.90
2018-08-09T19:41:26.293Z,91.70
2018-08-09T19:44:29.543Z,91.70
2018-08-09T19:47:32.709Z,91.70
2018-08-09T19:50:36.023Z,91.90
2018-08-09T19:53:39.281Z,91.50
2018-08-09T19:56:42.654Z,91.50
2018-08-09T19:59:45.913Z,91.40
2018-08-09T20:02:49.584Z,91.40
2018-08-09T20:05:52.864Z,91.30
2018-08-09T20:08:56.251Z,91.20
2018-08-09T20:11:59.673Z,91.20
2018-08-09T20:15:02.891Z,91.20
2018-08-09T20:18:06.146Z,91.00
2018-08-09T20:21:09.262Z,90.90
2018-08-09T20:24:12.473Z,90.90
2018-08-09T20:27:15.678Z,90.70
2018-08-09T20:30:19.442Z,90.50
2018-08-09T20:33:22.666Z,90.60
2018-08-09T20:36:25.738Z,90.60
2018-08-09T20:39:28.796Z,90.70
2018-08-09T20:42:32.815Z,90.60
2018-08-09T20:45:35.906Z,90.60
2018-08-09T20:48:39.653Z,90.60
2018-08-09T20:51:42.866Z,90.50
2018-08-09T20:54:46.047Z,90.50
2018-08-09T20:57:50.175Z,90.50
2018-08-09T21:00:53.484Z,90.70
2018-08-09T21:03:57.439Z,90.80
2018-08-09T21:07:00.670Z,90.80
2018-08-09T21:10:05.340Z,91.00
2018-08-09T21:13:08.666Z,91.00
2018-08-09T21:16:11.862Z,91.60
2018-08-09T21:19:15.080Z,91.20
2018-08-09T21:22:18.254Z,91.30
2018-08-09T21:25:21.582Z,91.20
2018-08-09T21:28:24.794Z,91.30
2018-08-09T21:31:28.022Z,91.40
2018-08-09T21:34:31.282Z,91.50
2018-08-09T21:37:34.517Z,91.50
2018-08-09T21:40:37.839Z,91.90
2018-08-09T21:43:41.179Z,91.50
2018-08-09T21:46:44.375Z,91.50
2018-08-09T21:49:47.702Z,91.50
2018-08-09T21:52:50.887Z,91.60
2018-08-09T21:55:54.077Z,91.70
2018-08-09T21:58:57.299Z,91.60
2018-08-09T22:02:00.650Z,91.60
2018-08-09T22:05:09.316Z,91.70
2018-08-09T22:08:18.026Z,91.60
2018-08-09T22:11:26.609Z,91.50
2018-08-09T22:14:35.332Z,91.60
2018-08-09T22:17:44.018Z,91.70
2018-08-09T22:20:52.775Z,91.60
2018-08-09T22:23:55.930Z,91.70
2018-08-09T22:26:59.134Z,91.60
2018-08-09T22:30:02.312Z,91.70
2018-08-09T22:33:05.605Z,91.70
2018-08-09T22:36:08.962Z,91.70
2018-08-09T22:39:12.126Z,91.50
2018-08-09T22:42:15.321Z,91.70
2018-08-09T22:45:18.607Z,91.80
2018-08-09T22:48:21.785Z,91.50
2018-08-09T22:51:25.012Z,91.70
2018-08-09T22:54:28.236Z,91.70
2018-08-09T22:57:31.405Z,91.70
2018-08-09T23:00:34.678Z,91.70
2018-08-09T23:03:38.013Z,91.70
2018-08-09T23:06:41.300Z,91.40
2018-08-09T23:09:44.624Z,91.40
2018-08-09T23:12:47.962Z,91.70
2018-08-09T23:15:51.185Z,91.20
2018-08-09T23:18:54.678Z,91.30
2018-08-09T23:21:57.890Z,91.30
2018-08-09T23:25:01.156Z,91.40
2018-08-09T23:28:04.480Z,91.30
2018-08-09T23:31:07.942Z,91.30
2018-08-09T23:34:11.090Z,91.20
2018-08-09T23:37:14.430Z,91.20
2018-08-09T23:40:17.726Z,91.30
2018-08-09T23:43:20.882Z,91.20
2018-08-09T23:46:24.058Z,91.00
2018-08-09T23:49:27.266Z,91.20
2018-08-09T23:52:38.902Z,91.00
2018-08-09T23:55:42.057Z,91.00
2018-08-09T23:58:45.253Z,91.00
